sensor_id;sensor_type;location;lat;lon;timestamp;pressure;altitude;pressure_sealevel;temperature;humidity
23229;BME280;11783;50.350;6.576;2023-02-21T00:00:28;96651.53;;;5.75;100.00
23229;BME280;11783;50.350;6.576;2023-02-21T00:03:11;96652.97;;;5.77;100.00
23229;BME280;11783;50.350;6.576;2023-02-21T00:05:58;96648.31;;;5.80;100.00
23229;BME280;11783;50.350;6.576;2023-02-21T00:08:44;96652.97;;;5.77;100.00
23229;BME280;11783;50.350;6.576;2023-02-21T00:11:28;96653.78;;;5.78;100.00
23229;BME280;11783;50.350;6.576;2023-02-21T00:14:12;96642.22;;;5.79;100.00
23229;BME280;11783;50.350;6.576;2023-02-21T00:16:56;96650.53;;;5.83;100.00
23229;BME280;11783;50.350;6.576;2023-02-21T00:19:42;96642.44;;;5.77;100.00
23229;BME280;11783;50.350;6.576;2023-02-21T00:22:29;96648.50;;;5.78;100.00
23229;BME280;11783;50.350;6.576;2023-02-21T00:25:13;96650.13;;;5.79;100.00
23229;BME280;11783;50.350;6.576;2023-02-21T00:27:59;96649.28;;;5.72;100.00
23229;BME280;11783;50.350;6.576;2023-02-21T00:30:46;96649.28;;;5.72;100.00
23229;BME280;11783;50.350;6.576;2023-02-21T00:33:35;96657.22;;;5.72;100.00
23229;BME280;11783;50.350;6.576;2023-02-21T00:36:19;96653.56;;;5.73;100.00
23229;BME280;11783;50.350;6.576;2023-02-21T00:39:04;96655.78;;;5.69;100.00
23229;BME280;11783;50.350;6.576;2023-02-21T00:41:48;96652.75;;;5.66;100.00
23229;BME280;11783;50.350;6.576;2023-02-21T00:44:32;96651.72;;;5.67;100.00
23229;BME280;11783;50.350;6.576;2023-02-21T00:47:18;96647.06;;;5.69;100.00
23229;BME280;11783;50.350;6.576;2023-02-21T00:50:02;96638.75;;;5.72;100.00
23229;BME280;11783;50.350;6.576;2023-02-21T00:52:46;96639.34;;;5.74;100.00
23229;BME280;11783;50.350;6.576;2023-02-21T00:55:33;96636.72;;;5.74;100.00
23229;BME280;11783;50.350;6.576;2023-02-21T00:58:20;96627.78;;;5.68;100.00
23229;BME280;11783;50.350;6.576;2023-02-21T01:01:07;96637.75;;;5.66;100.00
23229;BME280;11783;50.350;6.576;2023-02-21T01:03:51;96643.22;;;5.71;100.00
23229;BME280;11783;50.350;6.576;2023-02-21T01:06:35;96633.06;;;5.75;100.00
23229;BME280;11783;50.350;6.576;2023-02-21T01:09:21;96626.19;;;5.67;100.00
23229;BME280;11783;50.350;6.576;2023-02-21T01:12:05;96631.66;;;5.72;100.00
23229;BME280;11783;50.350;6.576;2023-02-21T01:14:49;96634.06;;;5.74;100.00
23229;BME280;11783;50.350;6.576;2023-02-21T01:17:36;96625.97;;;5.69;100.00
23229;BME280;11783;50.350;6.576;2023-02-21T01:20:20;96623.53;;;5.67;100.00
23229;BME280;11783;50.350;6.576;2023-02-21T01:23:07;96616.44;;;5.68;100.00
23229;BME280;11783;50.350;6.576;2023-02-21T01:25:51;96618.88;;;5.63;100.00
23229;BME280;11783;50.350;6.576;2023-02-21T01:28:35;96621.50;;;5.63;100.00
23229;BME280;11783;50.350;6.576;2023-02-21T01:31:20;96616.03;;;5.64;100.00
23229;BME280;11783;50.350;6.576;2023-02-21T01:34:04;96618.47;;;5.72;100.00
23229;BME280;11783;50.350;6.576;2023-02-21T01:36:48;96616.06;;;5.77;100.00
23229;BME280;11783;50.350;6.576;2023-02-21T01:39:32;96613.59;;;5.76;100.00
23229;BME280;11783;50.350;6.576;2023-02-21T01:42:16;96614.81;;;5.80;100.00
23229;BME280;11783;50.350;6.576;2023-02-21T01:48:11;96606.09;;;5.66;100.00
23229;BME280;11783;50.350;6.576;2023-02-21T01:50:59;96600.84;;;5.60;100.00
23229;BME280;11783;50.350;6.576;2023-02-21T01:53:45;96598.19;;;5.60;100.00
23229;BME280;11783;50.350;6.576;2023-02-21T01:56:30;96588.84;;;5.57;100.00
23229;BME280;11783;50.350;6.576;2023-02-21T01:59:15;96592.91;;;5.53;100.00
23229;BME280;11783;50.350;6.576;2023-02-21T02:02:08;96597.16;;;5.54;100.00
23229;BME280;11783;50.350;6.576;2023-02-21T02:04:56;96609.13;;;5.50;100.00
23229;BME280;11783;50.350;6.576;2023-02-21T02:07:41;96607.91;;;5.53;100.00
23229;BME280;11783;50.350;6.576;2023-02-21T02:10:25;96604.25;;;5.54;100.00
23229;BME280;11783;50.350;6.576;2023-02-21T02:16:03;96612.41;;;5.59;100.00
23229;BME280;11783;50.350;6.576;2023-02-21T02:21:41;96603.47;;;5.60;100.00
23229;BME280;11783;50.350;6.576;2023-02-21T02:36:12;96596.97;;;5.49;100.00
23229;BME280;11783;50.350;6.576;2023-02-21T02:38:55;96591.28;;;5.45;100.00
23229;BME280;11783;50.350;6.576;2023-02-21T02:43:55;96583.34;;;5.39;100.00
23229;BME280;11783;50.350;6.576;2023-02-21T02:46:28;96585.81;;;5.40;100.00
23229;BME280;11783;50.350;6.576;2023-02-21T02:49:22;96586.63;;;5.41;100.00
23229;BME280;11783;50.350;6.576;2023-02-21T02:51:47;96582.75;;;5.37;100.00
23229;BME280;11783;50.350;6.576;2023-02-21T02:54:16;96583.56;;;5.37;100.00
23229;BME280;11783;50.350;6.576;2023-02-21T02:56:42;96578.50;;;5.36;100.00
23229;BME280;11783;50.350;6.576;2023-02-21T02:59:10;96578.50;;;5.36;100.00
23229;BME280;11783;50.350;6.576;2023-02-21T03:04:41;96582.34;;;5.33;100.00
23229;BME280;11783;50.350;6.576;2023-02-21T03:07:25;96580.91;;;5.31;100.00
23229;BME280;11783;50.350;6.576;2023-02-21T03:10:19;96577.69;;;5.29;100.00
23229;BME280;11783;50.350;6.576;2023-02-21T03:15:40;96574.22;;;5.22;100.00
23229;BME280;11783;50.350;6.576;2023-02-21T03:18:39;96577.03;;;5.20;100.00
23229;BME280;11783;50.350;6.576;2023-02-21T03:21:02;96578.88;;;5.20;100.00
23229;BME280;11783;50.350;6.576;2023-02-21T03:23:31;96575.81;;;5.16;100.00
23229;BME280;11783;50.350;6.576;2023-02-21T03:26:05;96576.22;;;5.13;100.00
23229;BME280;11783;50.350;6.576;2023-02-21T03:28:38;96581.69;;;5.11;100.00
23229;BME280;11783;50.350;6.576;2023-02-21T03:31:16;96578.66;;;5.08;100.00
23229;BME280;11783;50.350;6.576;2023-02-21T03:33:44;96580.69;;;5.06;100.00
23229;BME280;11783;50.350;6.576;2023-02-21T03:36:13;96580.06;;;5.04;100.00
23229;BME280;11783;50.350;6.576;2023-02-21T03:38:39;96578.44;;;5.03;100.00
23229;BME280;11783;50.350;6.576;2023-02-21T03:41:08;96582.06;;;5.02;100.00
23229;BME280;11783;50.350;6.576;2023-02-21T03:43:39;96579.84;;;4.99;100.00
23229;BME280;11783;50.350;6.576;2023-02-21T03:46:07;96577.19;;;4.92;100.00
23229;BME280;11783;50.350;6.576;2023-02-21T03:48:38;96572.75;;;4.86;100.00
23229;BME280;11783;50.350;6.576;2023-02-21T03:51:04;96572.34;;;4.89;100.00
23229;BME280;11783;50.350;6.576;2023-02-21T03:53:31;96574.75;;;4.84;100.00
23229;BME280;11783;50.350;6.576;2023-02-21T03:55:56;96574.56;;;4.85;100.00
23229;BME280;11783;50.350;6.576;2023-02-21T03:58:21;96566.06;;;4.83;100.00
23229;BME280;11783;50.350;6.576;2023-02-21T04:00:47;96564.00;;;4.79;100.00
23229;BME280;11783;50.350;6.576;2023-02-21T04:03:12;96569.88;;;4.81;100.00
23229;BME280;11783;50.350;6.576;2023-02-21T04:05:38;96570.06;;;4.79;100.00
23229;BME280;11783;50.350;6.576;2023-02-21T04:08:04;96575.34;;;4.79;100.00
23229;BME280;11783;50.350;6.576;2023-02-21T04:10:29;96571.28;;;4.77;100.00
23229;BME280;11783;50.350;6.576;2023-02-21T04:12:55;96575.31;;;4.73;100.00
23229;BME280;11783;50.350;6.576;2023-02-21T04:15:22;96571.88;;;4.72;100.00
23229;BME280;11783;50.350;6.576;2023-02-21T04:17:48;96565.59;;;4.67;99.30
23229;BME280;11783;50.350;6.576;2023-02-21T04:20:14;96569.78;;;4.61;99.98
23229;BME280;11783;50.350;6.576;2023-02-21T04:22:39;96571.81;;;4.59;100.00
23229;BME280;11783;50.350;6.576;2023-02-21T04:25:05;96571.00;;;4.59;100.00
23229;BME280;11783;50.350;6.576;2023-02-21T04:27:31;96572.22;;;4.56;100.00
23229;BME280;11783;50.350;6.576;2023-02-21T04:29:56;96567.16;;;4.54;100.00
23229;BME280;11783;50.350;6.576;2023-02-21T04:32:22;96569.97;;;4.53;100.00
23229;BME280;11783;50.350;6.576;2023-02-21T04:34:47;96567.13;;;4.48;100.00
23229;BME280;11783;50.350;6.576;2023-02-21T04:37:12;96563.88;;;4.46;100.00
23229;BME280;11783;50.350;6.576;2023-02-21T04:39:39;96568.31;;;4.45;100.00
23229;BME280;11783;50.350;6.576;2023-02-21T04:42:04;96566.06;;;4.42;100.00
23229;BME280;11783;50.350;6.576;2023-02-21T04:44:30;96562.44;;;4.43;100.00
23229;BME280;11783;50.350;6.576;2023-02-21T04:46:55;96560.41;;;4.45;100.00
23229;BME280;11783;50.350;6.576;2023-02-21T04:49:26;96562.88;;;4.47;99.07
23229;BME280;11783;50.350;6.576;2023-02-21T04:51:57;96564.25;;;4.43;99.98
23229;BME280;11783;50.350;6.576;2023-02-21T04:54:25;96551.50;;;4.40;99.35
23229;BME280;11783;50.350;6.576;2023-02-21T04:56:55;96554.53;;;4.37;100.00
23229;BME280;11783;50.350;6.576;2023-02-21T04:59:21;96552.91;;;4.36;99.34
23229;BME280;11783;50.350;6.576;2023-02-21T05:01:48;96547.03;;;4.34;98.69
23229;BME280;11783;50.350;6.576;2023-02-21T05:04:19;96548.44;;;4.30;98.59
23229;BME280;11783;50.350;6.576;2023-02-21T05:06:51;96546.41;;;4.32;98.98
23229;BME280;11783;50.350;6.576;2023-02-21T05:09:19;96550.06;;;4.31;98.57
23229;BME280;11783;50.350;6.576;2023-02-21T05:11:44;96543.16;;;4.30;98.64
23229;BME280;11783;50.350;6.576;2023-02-21T05:14:15;96548.38;;;4.23;98.14
23229;BME280;11783;50.350;6.576;2023-02-21T05:16:45;96550.19;;;4.22;100.00
23229;BME280;11783;50.350;6.576;2023-02-21T05:19:11;96560.13;;;4.27;99.21
23229;BME280;11783;50.350;6.576;2023-02-21T05:21:36;96558.16;;;4.29;97.55
23229;BME280;11783;50.350;6.576;2023-02-21T05:24:06;96554.88;;;4.27;97.22
23229;BME280;11783;50.350;6.576;2023-02-21T05:26:34;96561.34;;;4.24;97.63
23229;BME280;11783;50.350;6.576;2023-02-21T05:29:04;96567.81;;;4.22;98.84
23229;BME280;11783;50.350;6.576;2023-02-21T05:31:29;96563.75;;;4.19;98.98
23229;BME280;11783;50.350;6.576;2023-02-21T05:33:56;96573.47;;;4.19;98.31
23229;BME280;11783;50.350;6.576;2023-02-21T05:36:25;96564.97;;;4.17;98.09
23229;BME280;11783;50.350;6.576;2023-02-21T05:38:54;96567.78;;;4.15;98.46
23229;BME280;11783;50.350;6.576;2023-02-21T05:41:25;96565.75;;;4.11;99.31
23229;BME280;11783;50.350;6.576;2023-02-21T05:43:54;96572.63;;;4.12;98.41
23229;BME280;11783;50.350;6.576;2023-02-21T05:46:27;96563.25;;;4.03;98.74
23229;BME280;11783;50.350;6.576;2023-02-21T05:48:57;96569.22;;;3.90;99.69
23229;BME280;11783;50.350;6.576;2023-02-21T05:51:23;96566.75;;;3.82;100.00
23229;BME280;11783;50.350;6.576;2023-02-21T05:53:49;96566.56;;;3.83;100.00
23229;BME280;11783;50.350;6.576;2023-02-21T05:56:20;96564.53;;;3.79;100.00
23229;BME280;11783;50.350;6.576;2023-02-21T05:58:53;96566.66;;;3.69;100.00
23229;BME280;11783;50.350;6.576;2023-02-21T06:01:22;96571.69;;;3.63;100.00
23229;BME280;11783;50.350;6.576;2023-02-21T06:03:47;96560.53;;;3.55;100.00
23229;BME280;11783;50.350;6.576;2023-02-21T06:06:16;96570.97;;;3.48;100.00
23229;BME280;11783;50.350;6.576;2023-02-21T06:08:48;96565.09;;;3.46;100.00
23229;BME280;11783;50.350;6.576;2023-02-21T06:11:25;96574.16;;;3.44;100.00
23229;BME280;11783;50.350;6.576;2023-02-21T06:13:52;96573.91;;;3.39;100.00
23229;BME280;11783;50.350;6.576;2023-02-21T06:16:17;96571.09;;;3.40;100.00
23229;BME280;11783;50.350;6.576;2023-02-21T06:18:42;96569.97;;;3.28;100.00
23229;BME280;11783;50.350;6.576;2023-02-21T06:21:13;96569.94;;;3.21;100.00
23229;BME280;11783;50.350;6.576;2023-02-21T06:23:44;96571.03;;;3.12;100.00
23229;BME280;11783;50.350;6.576;2023-02-21T06:26:16;96574.25;;;3.08;100.00
23229;BME280;11783;50.350;6.576;2023-02-21T06:28:42;96574.44;;;3.06;100.00
23229;BME280;11783;50.350;6.576;2023-02-21T06:31:11;96573.84;;;3.11;100.00
23229;BME280;11783;50.350;6.576;2023-02-21T06:33:39;96570.03;;;3.13;100.00
23229;BME280;11783;50.350;6.576;2023-02-21T06:36:11;96565.31;;;3.23;100.00
23229;BME280;11783;50.350;6.576;2023-02-21T06:38:37;96566.72;;;3.26;100.00
23229;BME280;11783;50.350;6.576;2023-02-21T06:41:07;96566.16;;;3.30;100.00
23229;BME280;11783;50.350;6.576;2023-02-21T06:43:35;96573.13;;;3.38;100.00
23229;BME280;11783;50.350;6.576;2023-02-21T06:46:14;96577.75;;;3.36;100.00
23229;BME280;11783;50.350;6.576;2023-02-21T06:48:47;96569.97;;;3.28;100.00
23229;BME280;11783;50.350;6.576;2023-02-21T06:51:17;96569.78;;;3.29;100.00
23229;BME280;11783;50.350;6.576;2023-02-21T06:53:44;96573.28;;;3.15;100.00
23229;BME280;11783;50.350;6.576;2023-02-21T06:56:12;96577.72;;;2.93;100.00
23229;BME280;11783;50.350;6.576;2023-02-21T06:58:38;96576.78;;;2.80;100.00
23229;BME280;11783;50.350;6.576;2023-02-21T07:01:06;96572.75;;;2.62;100.00
23229;BME280;11783;50.350;6.576;2023-02-21T07:03:31;96577.66;;;2.51;100.00
23229;BME280;11783;50.350;6.576;2023-02-21T07:05:57;96578.66;;;2.35;100.00
23229;BME280;11783;50.350;6.576;2023-02-21T07:08:22;96576.41;;;2.32;100.00
23229;BME280;11783;50.350;6.576;2023-02-21T07:10:51;96580.59;;;2.26;100.00
23229;BME280;11783;50.350;6.576;2023-02-21T07:13:16;96573.19;;;2.15;100.00
23229;BME280;11783;50.350;6.576;2023-02-21T07:15:44;96569.56;;;2.16;100.00
23229;BME280;11783;50.350;6.576;2023-02-21T07:18:15;96569.56;;;2.16;100.00
23229;BME280;11783;50.350;6.576;2023-02-21T07:20:43;96560.81;;;2.09;100.00
23229;BME280;11783;50.350;6.576;2023-02-21T07:23:09;96566.41;;;2.06;100.00
23229;BME280;11783;50.350;6.576;2023-02-21T07:25:37;96561.25;;;1.98;100.00
23229;BME280;11783;50.350;6.576;2023-02-21T07:28:07;96566.84;;;2.09;100.00
23229;BME280;11783;50.350;6.576;2023-02-21T07:30:36;96572.34;;;2.00;100.00
23229;BME280;11783;50.350;6.576;2023-02-21T07:33:01;96570.28;;;1.95;100.00
23229;BME280;11783;50.350;6.576;2023-02-21T07:35:26;96571.72;;;1.98;100.00
23229;BME280;11783;50.350;6.576;2023-02-21T07:37:54;96566.41;;;2.06;100.00
23229;BME280;11783;50.350;6.576;2023-02-21T07:40:20;96567.03;;;2.08;100.00
23229;BME280;11783;50.350;6.576;2023-02-21T07:42:48;96564.94;;;2.18;100.00
23229;BME280;11783;50.350;6.576;2023-02-21T07:45:14;96560.94;;;2.22;100.00
23229;BME280;11783;50.350;6.576;2023-02-21T07:47:49;96554.38;;;2.26;100.00
23229;BME280;11783;50.350;6.576;2023-02-21T07:50:20;96565.94;;;2.17;100.00
23229;BME280;11783;50.350;6.576;2023-02-21T07:52:50;96563.69;;;2.14;100.00
23229;BME280;11783;50.350;6.576;2023-02-21T07:55:18;96559.25;;;2.15;100.00
23229;BME280;11783;50.350;6.576;2023-02-21T07:57:48;96557.81;;;2.12;100.00
23229;BME280;11783;50.350;6.576;2023-02-21T08:00:16;96557.06;;;2.03;100.00
23229;BME280;11783;50.350;6.576;2023-02-21T08:02:46;96559.00;;;2.09;100.00
23229;BME280;11783;50.350;6.576;2023-02-21T08:05:16;96552.00;;;2.17;100.00
23229;BME280;11783;50.350;6.576;2023-02-21T08:07:45;96553.00;;;2.16;100.00
23229;BME280;11783;50.350;6.576;2023-02-21T08:10:12;96551.03;;;2.18;100.00
23229;BME280;11783;50.350;6.576;2023-02-21T08:12:38;96555.06;;;2.20;100.00
23229;BME280;11783;50.350;6.576;2023-02-21T08:15:03;96555.56;;;2.24;100.00
23229;BME280;11783;50.350;6.576;2023-02-21T08:17:33;96559.06;;;2.31;100.00
23229;BME280;11783;50.350;6.576;2023-02-21T08:20:00;96565.81;;;2.40;100.00
23229;BME280;11783;50.350;6.576;2023-02-21T08:22:29;96569.59;;;2.52;100.00
23229;BME280;11783;50.350;6.576;2023-02-21T08:24:54;96571.03;;;2.55;100.00
23229;BME280;11783;50.350;6.576;2023-02-21T08:27:22;96564.88;;;2.62;100.00
23229;BME280;11783;50.350;6.576;2023-02-21T08:29:50;96565.75;;;2.69;100.00
23229;BME280;11783;50.350;6.576;2023-02-21T08:32:16;96571.69;;;2.78;100.00
23229;BME280;11783;50.350;6.576;2023-02-21T08:34:46;96565.72;;;2.84;100.00
23229;BME280;11783;50.350;6.576;2023-02-21T08:37:15;96555.28;;;2.91;100.00
23229;BME280;11783;50.350;6.576;2023-02-21T08:39:45;96564.53;;;2.87;100.00
23229;BME280;11783;50.350;6.576;2023-02-21T08:42:12;96554.03;;;2.87;100.00
23229;BME280;11783;50.350;6.576;2023-02-21T08:44:38;96548.22;;;2.91;100.00
23229;BME280;11783;50.350;6.576;2023-02-21T08:47:03;96545.91;;;3.03;100.00
23229;BME280;11783;50.350;6.576;2023-02-21T08:49:34;96540.53;;;3.11;100.00
23229;BME280;11783;50.350;6.576;2023-02-21T08:52:04;96544.47;;;3.22;100.00
23229;BME280;11783;50.350;6.576;2023-02-21T08:54:32;96540.09;;;3.29;100.00
23229;BME280;11783;50.350;6.576;2023-02-21T08:57:00;96543.13;;;3.32;100.00
23229;BME280;11783;50.350;6.576;2023-02-21T08:59:28;96545.94;;;3.31;100.00
23229;BME280;11783;50.350;6.576;2023-02-21T09:01:57;96540.78;;;3.38;100.00
23229;BME280;11783;50.350;6.576;2023-02-21T09:04:23;96541.78;;;3.37;100.00
23229;BME280;11783;50.350;6.576;2023-02-21T09:06:53;96533.94;;;3.43;100.00
23229;BME280;11783;50.350;6.576;2023-02-21T09:09:21;96534.94;;;3.42;100.00
23229;BME280;11783;50.350;6.576;2023-02-21T09:11:47;96527.91;;;3.49;100.00
23229;BME280;11783;50.350;6.576;2023-02-21T09:14:14;96534.44;;;3.53;100.00
23229;BME280;11783;50.350;6.576;2023-02-21T09:16:40;96529.81;;;3.62;100.00
23229;BME280;11783;50.350;6.576;2023-02-21T09:19:09;96531.28;;;3.71;100.00
23229;BME280;11783;50.350;6.576;2023-02-21T09:21:37;96526.94;;;3.85;100.00
23229;BME280;11783;50.350;6.576;2023-02-21T09:24:09;96528.41;;;3.94;100.00
23229;BME280;11783;50.350;6.576;2023-02-21T09:26:35;96526.84;;;4.06;100.00
23229;BME280;11783;50.350;6.576;2023-02-21T09:29:05;96526.13;;;4.19;100.00
23229;BME280;11783;50.350;6.576;2023-02-21T09:31:39;96518.03;;;4.27;100.00
23229;BME280;11783;50.350;6.576;2023-02-21T09:34:04;96521.13;;;4.31;100.00
23229;BME280;11783;50.350;6.576;2023-02-21T09:36:29;96519.13;;;4.46;100.00
23229;BME280;11783;50.350;6.576;2023-02-21T09:38:55;96515.94;;;4.64;100.00
23229;BME280;11783;50.350;6.576;2023-02-21T09:41:26;96512.75;;;4.75;100.00
23229;BME280;11783;50.350;6.576;2023-02-21T09:43:55;96513.59;;;4.89;100.00
23229;BME280;11783;50.350;6.576;2023-02-21T09:46:34;96507.34;;;5.03;100.00
23229;BME280;11783;50.350;6.576;2023-02-21T09:49:04;96515.03;;;5.11;100.00
23229;BME280;11783;50.350;6.576;2023-02-21T09:51:33;96511.41;;;5.25;100.00
23229;BME280;11783;50.350;6.576;2023-02-21T09:54:02;96514.66;;;5.40;100.00
23229;BME280;11783;50.350;6.576;2023-02-21T09:56:34;96502.88;;;5.50;100.00
23229;BME280;11783;50.350;6.576;2023-02-21T09:59:02;96506.09;;;5.52;100.00
23229;BME280;11783;50.350;6.576;2023-02-21T10:06:59;96505.28;;;5.71;100.00
23229;BME280;11783;50.350;6.576;2023-02-21T10:10:03;96497.75;;;5.88;100.00
23229;BME280;11783;50.350;6.576;2023-02-21T10:18:18;96490.56;;;6.21;100.00
23229;BME280;11783;50.350;6.576;2023-02-21T10:20:54;96495.59;;;6.29;100.00
23229;BME280;11783;50.350;6.576;2023-02-21T10:23:36;96498.81;;;6.38;100.00
23229;BME280;11783;50.350;6.576;2023-02-21T10:26:05;96494.91;;;6.54;100.00
23229;BME280;11783;50.350;6.576;2023-02-21T10:28:34;96491.97;;;6.68;100.00
23229;BME280;11783;50.350;6.576;2023-02-21T10:31:05;96488.28;;;6.76;100.00
23229;BME280;11783;50.350;6.576;2023-02-21T10:33:37;96481.31;;;6.82;100.00
23229;BME280;11783;50.350;6.576;2023-02-21T10:36:21;96478.25;;;6.85;100.00
23229;BME280;11783;50.350;6.576;2023-02-21T10:38:57;96479.25;;;6.90;100.00
23229;BME280;11783;50.350;6.576;2023-02-21T10:41:24;96478.00;;;6.93;100.00
23229;BME280;11783;50.350;6.576;2023-02-21T10:43:57;96479.78;;;6.99;100.00
23229;BME280;11783;50.350;6.576;2023-02-21T10:46:44;96480.53;;;7.06;100.00
23229;BME280;11783;50.350;6.576;2023-02-21T10:49:22;96480.88;;;7.16;100.00
23229;BME280;11783;50.350;6.576;2023-02-21T10:52:06;96476.09;;;7.32;100.00
23229;BME280;11783;50.350;6.576;2023-02-21T10:54:33;96478.41;;;7.46;100.00
23229;BME280;11783;50.350;6.576;2023-02-21T10:56:59;96469.75;;;7.57;100.00
23229;BME280;11783;50.350;6.576;2023-02-21T10:59:27;96477.03;;;7.62;100.00
23229;BME280;11783;50.350;6.576;2023-02-21T11:01:57;96469.03;;;7.69;100.00
23229;BME280;11783;50.350;6.576;2023-02-21T11:04:24;96463.00;;;7.80;100.00
23229;BME280;11783;50.350;6.576;2023-02-21T11:07:07;96462.06;;;7.93;100.00
23229;BME280;11783;50.350;6.576;2023-02-21T11:09:39;96462.28;;;8.09;100.00
23229;BME280;11783;50.350;6.576;2023-02-21T11:14:33;96448.09;;;8.40;100.00
23229;BME280;11783;50.350;6.576;2023-02-21T11:19:57;96447.28;;;8.70;100.00
23229;BME280;11783;50.350;6.576;2023-02-21T11:22:39;96449.19;;;8.81;100.00
23229;BME280;11783;50.350;6.576;2023-02-21T11:25:32;96440.00;;;8.95;100.00
23229;BME280;11783;50.350;6.576;2023-02-21T11:30:37;96432.88;;;9.19;100.00
23229;BME280;11783;50.350;6.576;2023-02-21T11:33:08;96433.34;;;9.28;100.00
23229;BME280;11783;50.350;6.576;2023-02-21T11:35:42;96424.72;;;9.44;100.00
23229;BME280;11783;50.350;6.576;2023-02-21T11:38:38;96419.28;;;9.62;100.00
23229;BME280;11783;50.350;6.576;2023-02-21T11:43:56;96409.19;;;9.99;100.00
23229;BME280;11783;50.350;6.576;2023-02-21T11:46:39;96410.53;;;10.14;100.00
23229;BME280;11783;50.350;6.576;2023-02-21T11:49:47;96410.16;;;10.34;100.00
23229;BME280;11783;50.350;6.576;2023-02-21T11:52:19;96401.19;;;10.51;99.34
23229;BME280;11783;50.350;6.576;2023-02-21T11:54:49;96396.88;;;10.62;99.17
23229;BME280;11783;50.350;6.576;2023-02-21T11:57:46;96395.91;;;10.68;97.62
23229;BME280;11783;50.350;6.576;2023-02-21T12:00:37;96390.06;;;10.83;94.46
23229;BME280;11783;50.350;6.576;2023-02-21T12:03:39;96388.94;;;10.96;92.49
23229;BME280;11783;50.350;6.576;2023-02-21T12:09:01;96378.47;;;11.22;87.56
23229;BME280;11783;50.350;6.576;2023-02-21T12:25:26;96359.94;;;12.32;68.90
23229;BME280;11783;50.350;6.576;2023-02-21T12:28:23;96362.16;;;12.40;68.29
23229;BME280;11783;50.350;6.576;2023-02-21T12:39:47;96356.38;;;12.75;65.02
23229;BME280;11783;50.350;6.576;2023-02-21T12:48:10;96362.25;;;13.09;61.65
23229;BME280;11783;50.350;6.576;2023-02-21T12:50:42;96363.34;;;13.13;63.76
23229;BME280;11783;50.350;6.576;2023-02-21T12:53:14;96361.84;;;13.22;62.16
23229;BME280;11783;50.350;6.576;2023-02-21T12:55:45;96347.25;;;13.35;62.10
23229;BME280;11783;50.350;6.576;2023-02-21T12:58:36;96347.59;;;13.44;61.92
23229;BME280;11783;50.350;6.576;2023-02-21T13:06:59;96337.66;;;13.86;62.28
23229;BME280;11783;50.350;6.576;2023-02-21T13:09:38;96336.66;;;14.08;62.63
23229;BME280;11783;50.350;6.576;2023-02-21T13:14:52;96324.50;;;14.58;59.51
23229;BME280;11783;50.350;6.576;2023-02-21T13:17:21;96311.41;;;14.87;58.28
23229;BME280;11783;50.350;6.576;2023-02-21T13:19:54;96319.72;;;15.15;59.82
23229;BME280;11783;50.350;6.576;2023-02-21T13:28:31;96308.53;;;15.93;57.02
23229;BME280;11783;50.350;6.576;2023-02-21T13:31:05;96308.19;;;16.10;52.90
23229;BME280;11783;50.350;6.576;2023-02-21T13:33:51;96304.03;;;16.38;55.92
23229;BME280;11783;50.350;6.576;2023-02-21T13:39:15;96297.38;;;16.75;54.23
23229;BME280;11783;50.350;6.576;2023-02-21T13:41:50;96294.94;;;16.78;53.92
23229;BME280;11783;50.350;6.576;2023-02-21T13:44:29;96288.06;;;16.96;57.47
23229;BME280;11783;50.350;6.576;2023-02-21T13:49:56;96284.19;;;17.36;53.47
23229;BME280;11783;50.350;6.576;2023-02-21T13:52:49;96280.88;;;17.44;53.07
23229;BME280;11783;50.350;6.576;2023-02-21T13:58:30;96284.34;;;17.74;52.43
23229;BME280;11783;50.350;6.576;2023-02-21T14:10:57;96277.59;;;18.38;50.88
23229;BME280;11783;50.350;6.576;2023-02-21T14:19:06;96271.66;;;18.41;47.80
23229;BME280;11783;50.350;6.576;2023-02-21T14:21:59;96273.97;;;18.48;51.17
23229;BME280;11783;50.350;6.576;2023-02-21T14:24:31;96267.69;;;18.52;50.57
23229;BME280;11783;50.350;6.576;2023-02-21T14:27:29;96268.72;;;18.75;50.47
23229;BME280;11783;50.350;6.576;2023-02-21T14:32:48;96264.44;;;19.06;49.92
23229;BME280;11783;50.350;6.576;2023-02-21T14:48:48;96251.97;;;18.59;47.78
23229;BME280;11783;50.350;6.576;2023-02-21T14:53:54;96248.50;;;18.21;50.79
23229;BME280;11783;50.350;6.576;2023-02-21T15:02:12;96248.78;;;18.38;52.87
23229;BME280;11783;50.350;6.576;2023-02-21T15:04:53;96244.56;;;18.51;53.31
23229;BME280;11783;50.350;6.576;2023-02-21T15:07:42;96254.59;;;18.83;51.02
23229;BME280;11783;50.350;6.576;2023-02-21T15:10:23;96254.75;;;19.05;49.48
23229;BME280;11783;50.350;6.576;2023-02-21T15:12:51;96247.88;;;19.13;49.87
23229;BME280;11783;50.350;6.576;2023-02-21T15:15:25;96246.09;;;19.22;49.62
23229;BME280;11783;50.350;6.576;2023-02-21T15:18:06;96249.50;;;19.28;48.65
23229;BME280;11783;50.350;6.576;2023-02-21T15:20:34;96242.63;;;19.35;49.83
23229;BME280;11783;50.350;6.576;2023-02-21T15:23:13;96240.84;;;19.45;49.13
23229;BME280;11783;50.350;6.576;2023-02-21T15:25:43;96233.69;;;19.54;48.47
23229;BME280;11783;50.350;6.576;2023-02-21T15:28:28;96232.38;;;19.65;50.05
23229;BME280;11783;50.350;6.576;2023-02-21T15:31:12;96240.53;;;19.87;49.32
23229;BME280;11783;50.350;6.576;2023-02-21T15:33:40;96234.44;;;19.95;49.03
23229;BME280;11783;50.350;6.576;2023-02-21T15:36:13;96238.06;;;19.91;44.42
23229;BME280;11783;50.350;6.576;2023-02-21T15:38:51;96229.38;;;19.66;47.33
23229;BME280;11783;50.350;6.576;2023-02-21T15:41:39;96231.56;;;19.37;47.95
23229;BME280;11783;50.350;6.576;2023-02-21T15:45:15;96229.72;;;19.05;48.29
23229;BME280;11783;50.350;6.576;2023-02-21T15:47:18;96225.31;;;18.63;48.93
23229;BME280;11783;50.350;6.576;2023-02-21T15:49:51;96219.00;;;18.35;49.07
23229;BME280;11783;50.350;6.576;2023-02-21T15:52:48;96217.78;;;18.08;50.66
23229;BME280;11783;50.350;6.576;2023-02-21T15:57:55;96214.81;;;17.67;54.13
23229;BME280;11783;50.350;6.576;2023-02-21T16:00:34;96224.34;;;17.54;55.02
23229;BME280;11783;50.350;6.576;2023-02-21T16:03:35;96215.81;;;17.47;55.72